sensor_id;sensor_type;location;lat;lon;timestamp;pressure;altitude;pressure_sealevel;temperature;humidity
75312;BME280;63906;55.686;37.532;2023-02-24T00:04:45;99216.94;;;-7.37;62.40
75312;BME280;63906;55.686;37.532;2023-02-24T00:09:50;99190.91;;;-7.43;61.35
75312;BME280;63906;55.686;37.532;2023-02-24T00:14:51;99178.94;;;-7.57;60.67
75312;BME280;63906;55.686;37.532;2023-02-24T00:19:52;99189.81;;;-7.39;61.34
75312;BME280;63906;55.686;37.532;2023-02-24T00:24:52;99194.88;;;-7.53;62.14
75312;BME280;63906;55.686;37.532;2023-02-24T00:29:53;99159.47;;;-7.60;61.42
75312;BME280;63906;55.686;37.532;2023-02-24T00:34:53;99152.91;;;-7.64;61.78
75312;BME280;63906;55.686;37.532;2023-02-24T00:39:54;99178.25;;;-7.61;62.11
75312;BME280;63906;55.686;37.532;2023-02-24T00:44:57;99147.81;;;-7.49;61.70
75312;BME280;63906;55.686;37.532;2023-02-24T00:49:58;99142.31;;;-7.57;61.42
75312;BME280;63906;55.686;37.532;2023-02-24T00:54:58;99127.88;;;-7.59;61.14
75312;BME280;63906;55.686;37.532;2023-02-24T00:59:59;99146.34;;;-7.39;61.04
75312;BME280;63906;55.686;37.532;2023-02-24T01:04:59;99121.00;;;-7.42;61.38
75312;BME280;63906;55.686;37.532;2023-02-24T01:10:05;99126.34;;;-7.47;61.31
75312;BME280;63906;55.686;37.532;2023-02-24T01:15:09;99090.09;;;-7.68;61.46
75312;BME280;63906;55.686;37.532;2023-02-24T01:20:11;99109.03;;;-7.27;59.94
75312;BME280;63906;55.686;37.532;2023-02-24T01:25:18;99097.25;;;-7.44;61.07
75312;BME280;63906;55.686;37.532;2023-02-24T01:30:22;99094.59;;;-7.43;60.70
75312;BME280;63906;55.686;37.532;2023-02-24T01:35:24;99081.56;;;-7.38;59.80
75312;BME280;63906;55.686;37.532;2023-02-24T01:40:25;99030.97;;;-7.76;59.40
75312;BME280;63906;55.686;37.532;2023-02-24T01:45:27;99069.75;;;-7.55;59.89
75312;BME280;63906;55.686;37.532;2023-02-24T01:50:28;99040.63;;;-7.67;60.38
75312;BME280;63906;55.686;37.532;2023-02-24T01:55:43;99043.66;;;-7.74;59.31
75312;BME280;63906;55.686;37.532;2023-02-24T02:00:46;99022.91;;;-7.84;59.74
75312;BME280;63906;55.686;37.532;2023-02-24T02:05:47;99027.66;;;-7.78;60.12
75312;BME280;63906;55.686;37.532;2023-02-24T02:10:48;99023.63;;;-7.96;60.66
75312;BME280;63906;55.686;37.532;2023-02-24T02:37:04;98978.34;;;-8.37;62.12
75312;BME280;63906;55.686;37.532;2023-02-24T02:42:39;98970.53;;;-8.20;62.93
75312;BME280;63906;55.686;37.532;2023-02-24T02:53:18;98965.44;;;-7.77;62.72
75312;BME280;63906;55.686;37.532;2023-02-24T02:58:20;98943.75;;;-7.70;61.98
75312;BME280;63906;55.686;37.532;2023-02-24T03:03:23;98906.16;;;-7.68;62.24
75312;BME280;63906;55.686;37.532;2023-02-24T03:08:28;98916.63;;;-7.58;61.62
75312;BME280;63906;55.686;37.532;2023-02-24T03:13:34;98876.06;;;-7.91;62.03
75312;BME280;63906;55.686;37.532;2023-02-24T03:18:49;98884.09;;;-7.97;62.96
75312;BME280;63906;55.686;37.532;2023-02-24T03:23:52;98873.13;;;-7.85;61.60
75312;BME280;63906;55.686;37.532;2023-02-24T03:34:11;98850.97;;;-7.99;62.56
75312;BME280;63906;55.686;37.532;2023-02-24T03:39:14;98819.00;;;-8.19;63.37
75312;BME280;63906;55.686;37.532;2023-02-24T03:44:15;98806.22;;;-8.04;63.23
75312;BME280;63906;55.686;37.532;2023-02-24T03:49:16;98794.22;;;-7.90;62.60
75312;BME280;63906;55.686;37.532;2023-02-24T04:05:40;98777.72;;;-7.84;63.38
75312;BME280;63906;55.686;37.532;2023-02-24T04:10:57;98790.47;;;-7.70;62.52
75312;BME280;63906;55.686;37.532;2023-02-24T04:16:19;98766.72;;;-7.72;61.30
75312;BME280;63906;55.686;37.532;2023-02-24T04:21:28;98738.88;;;-7.89;61.75
75312;BME280;63906;55.686;37.532;2023-02-24T04:26:31;98741.97;;;-7.84;61.80
75312;BME280;63906;55.686;37.532;2023-02-24T04:31:33;98731.19;;;-7.75;63.11
75312;BME280;63906;55.686;37.532;2023-02-24T04:36:34;98752.72;;;-7.79;60.84
75312;BME280;63906;55.686;37.532;2023-02-24T04:41:37;98719.28;;;-7.89;62.04
75312;BME280;63906;55.686;37.532;2023-02-24T04:46:38;98712.91;;;-7.69;63.21
75312;BME280;63906;55.686;37.532;2023-02-24T04:51:38;98742.78;;;-7.56;62.69
75312;BME280;63906;55.686;37.532;2023-02-24T04:56:43;98727.25;;;-7.53;61.78
75312;BME280;63906;55.686;37.532;2023-02-24T05:01:44;98739.03;;;-7.51;61.22
75312;BME280;63906;55.686;37.532;2023-02-24T05:06:45;98693.44;;;-7.44;62.49
75312;BME280;63906;55.686;37.532;2023-02-24T05:11:48;98707.34;;;-7.36;63.08
75312;BME280;63906;55.686;37.532;2023-02-24T05:16:49;98682.31;;;-7.30;62.30
75312;BME280;63906;55.686;37.532;2023-02-24T05:21:50;98668.03;;;-7.20;62.22
75312;BME280;63906;55.686;37.532;2023-02-24T05:26:50;98684.25;;;-7.09;59.78
75312;BME280;63906;55.686;37.532;2023-02-24T05:31:57;98651.94;;;-7.10;61.53
75312;BME280;63906;55.686;37.532;2023-02-24T05:37:00;98649.38;;;-6.84;61.61
75312;BME280;63906;55.686;37.532;2023-02-24T05:42:03;98655.63;;;-6.75;61.63
75312;BME280;63906;55.686;37.532;2023-02-24T05:47:06;98648.44;;;-6.83;61.06
75312;BME280;63906;55.686;37.532;2023-02-24T05:52:07;98652.00;;;-6.73;62.17
75312;BME280;63906;55.686;37.532;2023-02-24T05:57:11;98614.69;;;-6.88;59.90
75312;BME280;63906;55.686;37.532;2023-02-24T06:02:13;98620.16;;;-6.56;61.04
75312;BME280;63906;55.686;37.532;2023-02-24T06:07:17;98611.22;;;-6.51;62.28
75312;BME280;63906;55.686;37.532;2023-02-24T06:12:20;98629.41;;;-6.42;61.59
75312;BME280;63906;55.686;37.532;2023-02-24T06:17:21;98595.72;;;-6.36;61.70
75312;BME280;63906;55.686;37.532;2023-02-24T06:22:25;98608.00;;;-6.41;61.97
75312;BME280;63906;55.686;37.532;2023-02-24T06:27:25;98616.56;;;-6.30;63.37
75312;BME280;63906;55.686;37.532;2023-02-24T06:32:26;98582.66;;;-6.44;63.79
75312;BME280;63906;55.686;37.532;2023-02-24T06:37:27;98583.03;;;-6.38;63.33
75312;BME280;63906;55.686;37.532;2023-02-24T06:42:29;98559.75;;;-6.35;64.68
75312;BME280;63906;55.686;37.532;2023-02-24T06:47:29;98570.91;;;-6.12;64.61
75312;BME280;63906;55.686;37.532;2023-02-24T06:52:32;98576.53;;;-6.07;65.14
75312;BME280;63906;55.686;37.532;2023-02-24T06:57:33;98570.69;;;-6.09;65.81
75312;BME280;63906;55.686;37.532;2023-02-24T07:02:33;98551.34;;;-6.13;66.95
75312;BME280;63906;55.686;37.532;2023-02-24T07:07:39;98540.06;;;-6.10;66.96
75312;BME280;63906;55.686;37.532;2023-02-24T07:12:45;98514.59;;;-6.01;68.60
75312;BME280;63906;55.686;37.532;2023-02-24T07:17:45;98527.75;;;-6.05;68.34
75312;BME280;63906;55.686;37.532;2023-02-24T07:22:46;98526.50;;;-5.66;69.32
75312;BME280;63906;55.686;37.532;2023-02-24T07:27:47;98485.03;;;-5.93;69.00
75312;BME280;63906;55.686;37.532;2023-02-24T07:32:47;98491.91;;;-5.72;68.82
75312;BME280;63906;55.686;37.532;2023-02-24T07:37:48;98500.88;;;-5.55;69.42
75312;BME280;63906;55.686;37.532;2023-02-24T07:42:49;98500.56;;;-5.39;69.83
75312;BME280;63906;55.686;37.532;2023-02-24T07:47:53;98499.97;;;-5.20;69.06
75312;BME280;63906;55.686;37.532;2023-02-24T07:52:53;98443.53;;;-5.43;68.96
75312;BME280;63906;55.686;37.532;2023-02-24T07:57:54;98457.22;;;-4.99;69.08
75312;BME280;63906;55.686;37.532;2023-02-24T08:02:56;98474.50;;;-5.01;69.62
75312;BME280;63906;55.686;37.532;2023-02-24T08:07:57;98459.94;;;-5.23;69.52
75312;BME280;63906;55.686;37.532;2023-02-24T08:12:57;98452.84;;;-5.08;70.17
75312;BME280;63906;55.686;37.532;2023-02-24T08:18:02;98433.94;;;-5.07;70.02
75312;BME280;63906;55.686;37.532;2023-02-24T08:23:03;98448.75;;;-4.78;69.76
75312;BME280;63906;55.686;37.532;2023-02-24T08:28:07;98441.34;;;-4.61;69.14
75312;BME280;63906;55.686;37.532;2023-02-24T08:33:13;98407.50;;;-4.87;68.36
75312;BME280;63906;55.686;37.532;2023-02-24T08:38:19;98433.91;;;-4.43;69.46
75312;BME280;63906;55.686;37.532;2023-02-24T08:43:27;98418.13;;;-4.59;68.43
75312;BME280;63906;55.686;37.532;2023-02-24T08:48:39;98433.53;;;-4.59;69.52
75312;BME280;63906;55.686;37.532;2023-02-24T08:53:42;98405.03;;;-4.56;70.36
75312;BME280;63906;55.686;37.532;2023-02-24T08:58:44;98403.88;;;-4.52;70.06
75312;BME280;63906;55.686;37.532;2023-02-24T09:03:53;98403.78;;;-4.20;70.58
75312;BME280;63906;55.686;37.532;2023-02-24T09:08:55;98421.56;;;-4.07;68.57
75312;BME280;63906;55.686;37.532;2023-02-24T09:14:17;98426.22;;;-3.70;69.88
75312;BME280;63906;55.686;37.532;2023-02-24T09:19:17;98391.69;;;-3.77;69.48
75312;BME280;63906;55.686;37.532;2023-02-24T09:24:36;98368.78;;;-3.81;69.92
75312;BME280;63906;55.686;37.532;2023-02-24T09:29:37;98401.13;;;-3.38;69.52
75312;BME280;63906;55.686;37.532;2023-02-24T09:34:48;98395.03;;;-3.46;69.13
75312;BME280;63906;55.686;37.532;2023-02-24T09:39:49;98361.31;;;-3.53;68.83
75312;BME280;63906;55.686;37.532;2023-02-24T09:45:03;98353.31;;;-3.50;69.29
75312;BME280;63906;55.686;37.532;2023-02-24T09:50:20;98373.22;;;-3.52;69.91
75312;BME280;63906;55.686;37.532;2023-02-24T09:55:34;98315.00;;;-3.72;68.50
75312;BME280;63906;55.686;37.532;2023-02-24T10:06:24;98352.16;;;-3.27;69.45
75312;BME280;63906;55.686;37.532;2023-02-24T10:11:27;98316.97;;;-3.16;69.48
75312;BME280;63906;55.686;37.532;2023-02-24T10:16:40;98322.63;;;-2.93;69.25
75312;BME280;63906;55.686;37.532;2023-02-24T10:21:53;98292.03;;;-3.16;67.80
75312;BME280;63906;55.686;37.532;2023-02-24T10:27:11;98315.03;;;-2.76;68.29
75312;BME280;63906;55.686;37.532;2023-02-24T10:32:20;98309.88;;;-2.66;66.81
75312;BME280;63906;55.686;37.532;2023-02-24T10:37:28;98302.28;;;-2.30;68.78
75312;BME280;63906;55.686;37.532;2023-02-24T10:42:31;98263.50;;;-2.66;68.74
75312;BME280;63906;55.686;37.532;2023-02-24T10:47:33;98289.59;;;-2.41;67.82
75312;BME280;63906;55.686;37.532;2023-02-24T10:52:36;98286.66;;;-2.19;68.86
75312;BME280;63906;55.686;37.532;2023-02-24T10:58:37;98285.13;;;-2.12;68.95
75312;BME280;63906;55.686;37.532;2023-02-24T11:03:39;98273.06;;;-2.11;67.80
75312;BME280;63906;55.686;37.532;2023-02-24T11:08:55;98262.56;;;-2.28;68.01
75312;BME280;63906;55.686;37.532;2023-02-24T11:14:15;98262.91;;;-2.13;68.38
75312;BME280;63906;55.686;37.532;2023-02-24T11:19:47;98257.78;;;-1.95;68.90
75312;BME280;63906;55.686;37.532;2023-02-24T11:24:49;98234.59;;;-2.23;67.15
75312;BME280;63906;55.686;37.532;2023-02-24T11:30:14;98236.13;;;-2.02;67.82
75312;BME280;63906;55.686;37.532;2023-02-24T11:35:35;98232.38;;;-2.18;68.20
75312;BME280;63906;55.686;37.532;2023-02-24T11:40:40;98202.63;;;-2.30;67.79
75312;BME280;63906;55.686;37.532;2023-02-24T11:45:52;98227.19;;;-2.08;68.75
75312;BME280;63906;55.686;37.532;2023-02-24T11:50:58;98193.47;;;-2.42;67.54
75312;BME280;63906;55.686;37.532;2023-02-24T12:01:14;98216.25;;;-2.20;68.38
75312;BME280;63906;55.686;37.532;2023-02-24T12:06:31;98217.41;;;-2.04;68.35
75312;BME280;63906;55.686;37.532;2023-02-24T12:11:58;98197.22;;;-2.36;65.71
75312;BME280;63906;55.686;37.532;2023-02-24T12:22:14;98167.91;;;-2.53;66.86
75312;BME280;63906;55.686;37.532;2023-02-24T12:44:08;98187.22;;;-2.67;68.42
75312;BME280;63906;55.686;37.532;2023-02-24T12:54:22;98178.44;;;-2.84;69.29
75312;BME280;63906;55.686;37.532;2023-02-24T12:59:31;98168.72;;;-2.90;70.43
75312;BME280;63906;55.686;37.532;2023-02-24T13:04:49;98141.13;;;-3.17;69.27
75312;BME280;63906;55.686;37.532;2023-02-24T13:15:22;98118.03;;;-3.27;70.14
75312;BME280;63906;55.686;37.532;2023-02-24T13:20:36;98144.91;;;-3.02;69.72
75312;BME280;63906;55.686;37.532;2023-02-24T13:25:37;98138.00;;;-3.01;69.41
75312;BME280;63906;55.686;37.532;2023-02-24T13:30:43;98144.72;;;-2.90;69.39
75312;BME280;63906;55.686;37.532;2023-02-24T13:35:48;98116.44;;;-3.00;71.25
75312;BME280;63906;55.686;37.532;2023-02-24T13:40:50;98116.94;;;-2.87;70.92
75312;BME280;63906;55.686;37.532;2023-02-24T13:45:56;98121.69;;;-2.92;70.67
75312;BME280;63906;55.686;37.532;2023-02-24T14:01:25;98089.94;;;-3.10;70.13
75312;BME280;63906;55.686;37.532;2023-02-24T14:06:27;98125.59;;;-2.78;70.51
75312;BME280;63906;55.686;37.532;2023-02-24T14:11:31;98124.78;;;-2.79;71.29
75312;BME280;63906;55.686;37.532;2023-02-24T14:16:36;98116.66;;;-2.84;71.89
75312;BME280;63906;55.686;37.532;2023-02-24T14:21:52;98082.25;;;-3.20;70.82
75312;BME280;63906;55.686;37.532;2023-02-24T14:26:54;98118.75;;;-2.97;71.72
75312;BME280;63906;55.686;37.532;2023-02-24T14:31:56;98106.53;;;-2.95;72.49
75312;BME280;63906;55.686;37.532;2023-02-24T14:37:05;98084.41;;;-3.15;72.14
75312;BME280;63906;55.686;37.532;2023-02-24T14:47:10;98101.06;;;-3.10;71.73
75312;BME280;63906;55.686;37.532;2023-02-24T14:57:45;98114.25;;;-2.95;73.57
75312;BME280;63906;55.686;37.532;2023-02-24T15:02:54;98075.34;;;-3.19;73.48
75312;BME280;63906;55.686;37.532;2023-02-24T15:07:57;98109.91;;;-2.94;74.47
75312;BME280;63906;55.686;37.532;2023-02-24T15:13:15;98106.53;;;-2.95;74.42
75312;BME280;63906;55.686;37.532;2023-02-24T15:18:25;98099.63;;;-2.94;74.70
75312;BME280;63906;55.686;37.532;2023-02-24T15:23:36;98087.75;;;-3.05;75.08
75312;BME280;63906;55.686;37.532;2023-02-24T15:28:37;98078.00;;;-3.11;75.46
75312;BME280;63906;55.686;37.532;2023-02-24T15:33:41;98075.44;;;-3.11;75.64
75312;BME280;63906;55.686;37.532;2023-02-24T15:38:43;98095.84;;;-3.00;75.66
75312;BME280;63906;55.686;37.532;2023-02-24T15:43:49;98073.66;;;-3.11;75.54
75312;BME280;63906;55.686;37.532;2023-02-24T15:48:53;98073.16;;;-3.14;76.38
75312;BME280;63906;55.686;37.532;2023-02-24T15:53:54;98093.97;;;-2.98;75.90
75312;BME280;63906;55.686;37.532;2023-02-24T15:58:55;98072.25;;;-2.95;76.10
75312;BME280;63906;55.686;37.532;2023-02-24T16:03:55;98070.97;;;-3.09;75.85
75312;BME280;63906;55.686;37.532;2023-02-24T16:08:56;98075.16;;;-3.08;75.98
75312;BME280;63906;55.686;37.532;2023-02-24T16:13:58;98053.19;;;-3.03;76.85
75312;BME280;63906;55.686;37.532;2023-02-24T16:18:59;98075.25;;;-3.00;76.59
75312;BME280;63906;55.686;37.532;2023-02-24T16:23:59;98071.41;;;-2.86;76.70
75312;BME280;63906;55.686;37.532;2023-02-24T16:29:00;98047.63;;;-2.98;76.64
75312;BME280;63906;55.686;37.532;2023-02-24T16:34:01;98068.78;;;-2.77;77.30
75312;BME280;63906;55.686;37.532;2023-02-24T16:39:02;98055.16;;;-2.87;76.60
75312;BME280;63906;55.686;37.532;2023-02-24T16:44:04;98043.88;;;-2.86;76.72
75312;BME280;63906;55.686;37.532;2023-02-24T16:49:07;98022.13;;;-2.91;76.96
75312;BME280;63906;55.686;37.532;2023-02-24T16:54:08;98043.28;;;-2.97;76.68
75312;BME280;63906;55.686;37.532;2023-02-24T16:59:08;98041.22;;;-2.94;76.79
75312;BME280;63906;55.686;37.532;2023-02-24T17:04:09;98030.84;;;-3.02;76.70
75312;BME280;63906;55.686;37.532;2023-02-24T17:09:10;98023.97;;;-2.84;77.11
75312;BME280;63906;55.686;37.532;2023-02-24T17:14:16;98017.22;;;-2.85;76.63
75312;BME280;63906;55.686;37.532;2023-02-24T17:19:17;98017.75;;;-2.63;77.50
75312;BME280;63906;55.686;37.532;2023-02-24T17:24:18;98007.75;;;-2.66;77.29
75312;BME280;63906;55.686;37.532;2023-02-24T17:29:19;98003.25;;;-2.64;77.29
75312;BME280;63906;55.686;37.532;2023-02-24T17:34:19;97973.06;;;-2.90;76.80
75312;BME280;63906;55.686;37.532;2023-02-24T17:39:23;97991.34;;;-2.65;76.93
75312;BME280;63906;55.686;37.532;2023-02-24T17:44:23;97971.31;;;-2.72;77.61
75312;BME280;63906;55.686;37.532;2023-02-24T17:49:24;97986.78;;;-2.72;78.04
75312;BME280;63906;55.686;37.532;2023-02-24T17:54:24;97971.44;;;-2.55;77.63
75312;BME280;63906;55.686;37.532;2023-02-24T17:59:25;97974.84;;;-2.55;77.91
75312;BME280;63906;55.686;37.532;2023-02-24T18:04:25;97971.97;;;-2.52;77.75
75312;BME280;63906;55.686;37.532;2023-02-24T18:09:26;97969.56;;;-2.53;77.58
75312;BME280;63906;55.686;37.532;2023-02-24T18:14:27;97943.75;;;-2.79;76.69
75312;BME280;63906;55.686;37.532;2023-02-24T18:19:27;97947.84;;;-2.51;77.52
75312;BME280;63906;55.686;37.532;2023-02-24T18:24:29;97959.47;;;-2.47;77.48
75312;BME280;63906;55.686;37.532;2023-02-24T18:29:30;97944.28;;;-2.32;77.88
75312;BME280;63906;55.686;37.532;2023-02-24T18:34:30;97932.81;;;-2.55;77.48
75312;BME280;63906;55.686;37.532;2023-02-24T18:39:31;97933.78;;;-2.56;77.38
75312;BME280;63906;55.686;37.532;2023-02-24T18:44:31;97907.31;;;-2.66;77.14
75312;BME280;63906;55.686;37.532;2023-02-24T18:49:32;97919.06;;;-2.46;78.15
75312;BME280;63906;55.686;37.532;2023-02-24T18:54:33;97916.84;;;-2.41;77.76
75312;BME280;63906;55.686;37.532;2023-02-24T18:59:33;97901.16;;;-2.30;78.30
75312;BME280;63906;55.686;37.532;2023-02-24T19:04:34;97891.84;;;-2.23;78.20
75312;BME280;63906;55.686;37.532;2023-02-24T19:09:35;97897.53;;;-2.37;77.47
75312;BME280;63906;55.686;37.532;2023-02-24T19:14:36;97891.78;;;-2.31;78.45
75312;BME280;63906;55.686;37.532;2023-02-24T19:19:38;97874.47;;;-2.47;77.93
75312;BME280;63906;55.686;37.532;2023-02-24T19:24:38;97855.50;;;-2.37;78.20
75312;BME280;63906;55.686;37.532;2023-02-24T19:29:39;97880.00;;;-2.07;78.77
75312;BME280;63906;55.686;37.532;2023-02-24T19:34:39;97858.69;;;-2.18;78.11
75312;BME280;63906;55.686;37.532;2023-02-24T19:39:40;97857.03;;;-2.27;78.65
75312;BME280;63906;55.686;37.532;2023-02-24T19:44:41;97846.16;;;-2.38;77.81
75312;BME280;63906;55.686;37.532;2023-02-24T19:49:41;97852.88;;;-2.20;78.27
75312;BME280;63906;55.686;37.532;2023-02-24T19:54:42;97850.91;;;-2.26;77.52
75312;BME280;63906;55.686;37.532;2023-02-24T19:59:42;97846.81;;;-2.10;78.58
75312;BME280;63906;55.686;37.532;2023-02-24T20:04:44;97845.16;;;-2.20;78.90
75312;BME280;63906;55.686;37.532;2023-02-24T20:09:44;97842.28;;;-2.17;78.89
75312;BME280;63906;55.686;37.532;2023-02-24T20:14:45;97820.16;;;-2.27;78.72
75312;BME280;63906;55.686;37.532;2023-02-24T20:19:45;97820.97;;;-2.27;78.81
75312;BME280;63906;55.686;37.532;2023-02-24T20:24:46;97838.59;;;-2.06;78.68
75312;BME280;63906;55.686;37.532;2023-02-24T20:29:46;97809.66;;;-2.34;78.26
75312;BME280;63906;55.686;37.532;2023-02-24T20:34:47;97794.88;;;-2.24;78.57
75312;BME280;63906;55.686;37.532;2023-02-24T20:39:50;97825.91;;;-1.99;78.37
75312;BME280;63906;55.686;37.532;2023-02-24T20:44:51;97813.69;;;-1.97;78.98
75312;BME280;63906;55.686;37.532;2023-02-24T20:49:52;97809.94;;;-2.11;77.71
75312;BME280;63906;55.686;37.532;2023-02-24T20:54:52;97800.19;;;-1.91;77.79
75312;BME280;63906;55.686;37.532;2023-02-24T20:59:53;97780.25;;;-2.15;78.32
75312;BME280;63906;55.686;37.532;2023-02-24T21:04:58;97788.44;;;-2.20;77.56
75312;BME280;63906;55.686;37.532;2023-02-24T21:09:59;97789.59;;;-2.14;77.68
75312;BME280;63906;55.686;37.532;2023-02-24T21:14:59;97803.31;;;-2.05;77.57
75312;BME280;63906;55.686;37.532;2023-02-24T21:20:00;97800.47;;;-1.94;78.84
75312;BME280;63906;55.686;37.532;2023-02-24T21:25:04;97797.31;;;-1.80;79.18
75312;BME280;63906;55.686;37.532;2023-02-24T21:30:06;97775.66;;;-2.03;78.62
75312;BME280;63906;55.686;37.532;2023-02-24T21:35:07;97726.63;;;-2.11;79.31
75312;BME280;63906;55.686;37.532;2023-02-24T21:40:08;97778.56;;;-1.98;78.34
75312;BME280;63906;55.686;37.532;2023-02-24T21:45:12;97776.63;;;-1.96;78.72
75312;BME280;63906;55.686;37.532;2023-02-24T21:50:13;97781.88;;;-1.64;78.78
75312;BME280;63906;55.686;37.532;2023-02-24T21:55:15;97757.41;;;-2.10;77.66
75312;BME280;63906;55.686;37.532;2023-02-24T22:00:16;97775.06;;;-1.81;78.64
75312;BME280;63906;55.686;37.532;2023-02-24T22:05:17;97754.22;;;-2.04;77.71
75312;BME280;63906;55.686;37.532;2023-02-24T22:10:21;97751.22;;;-1.83;79.19
75312;BME280;63906;55.686;37.532;2023-02-24T22:15:22;97743.47;;;-1.75;78.82
75312;BME280;63906;55.686;37.532;2023-02-24T22:20:22;97751.19;;;-1.91;77.87
75312;BME280;63906;55.686;37.532;2023-02-24T22:25:23;97754.13;;;-1.70;78.87
75312;BME280;63906;55.686;37.532;2023-02-24T22:30:23;97723.00;;;-1.84;78.84
75312;BME280;63906;55.686;37.532;2023-02-24T22:35:24;97732.88;;;-1.64;78.68
75312;BME280;63906;55.686;37.532;2023-02-24T22:40:24;97736.13;;;-1.53;78.94
75312;BME280;63906;55.686;37.532;2023-02-24T22:45:25;97706.91;;;-1.62;79.25
75312;BME280;63906;55.686;37.532;2023-02-24T22:50:25;97719.97;;;-1.64;78.62
75312;BME280;63906;55.686;37.532;2023-02-24T22:55:26;97722.09;;;-1.43;79.06
75312;BME280;63906;55.686;37.532;2023-02-24T23:00:27;97714.03;;;-1.40;79.19
75312;BME280;63906;55.686;37.532;2023-02-24T23:05:28;97685.97;;;-1.59;79.33
75312;BME280;63906;55.686;37.532;2023-02-24T23:10:29;97699.66;;;-1.50;79.59
75312;BME280;63906;55.686;37.532;2023-02-24T23:15:29;97680.97;;;-1.60;79.36
75312;BME280;63906;55.686;37.532;2023-02-24T23:20:30;97674.03;;;-1.60;79.40
75312;BME280;63906;55.686;37.532;2023-02-24T23:25:30;97694.19;;;-1.47;80.27
75312;BME280;63906;55.686;37.532;2023-02-24T23:30:31;97661.47;;;-1.55;79.84
75312;BME280;63906;55.686;37.532;2023-02-24T23:35:33;97670.81;;;-1.46;80.33
75312;BME280;63906;55.686;37.532;2023-02-24T23:40:37;97677.59;;;-1.37;79.62
75312;BME280;63906;55.686;37.532;2023-02-24T23:45:39;97648.41;;;-1.53;79.76
75312;BME280;63906;55.686;37.532;2023-02-24T23:50:42;97660.63;;;-1.23;79.94
75312;BME280;63906;55.686;37.532;2023-02-24T23:55:47;97654.53;;;-1.46;78.51
